This is the latest recevied weather packets stored in our database for station/object W2EH. If no packets are shown the sender has not sent any weather packets the latest 10 day(s).
| Time | Temp. | Humidity | Pressure | Rain* | Wind** | Luminosity | Snow |
|---|---|---|---|---|---|---|---|
| 1777869142 | 18.33° C | 60% | 1016.3 hPa | 0 mm | - | 0 W/m² | - |
| 1777868840 | 18.33° C | 61% | 1016.1 hPa | 0 mm | - | 0 W/m² | - |
| 1777868536 | 18.33° C | 62% | 1016.3 hPa | 0 mm | - | 0 W/m² | - |
| 1777868232 | 17.78° C | 63% | 1016.4 hPa | 0 mm | - | 0 W/m² | - |
| 1777867928 | 17.22° C | 66% | 1016.1 hPa | 0 mm | - | 0 W/m² | - |
| 1777867625 | 16.11° C | 70% | 1016.1 hPa | 0 mm | - | 0 W/m² | - |
| 1777867322 | 15° C | 79% | 1016.2 hPa | 0 mm | - | 0 W/m² | - |
| 1777867018 | 15° C | 77% | 1016.2 hPa | 0 mm | - | 0 W/m² | - |
| 1777866715 | 15° C | 78% | 1016.4 hPa | 0 mm | - | 0 W/m² | - |
| 1777866413 | 15° C | 76% | 1016.3 hPa | 0 mm | - | 0 W/m² | - |
| 1777866110 | 15° C | 76% | 1016.4 hPa | 0 mm | - | 0 W/m² | - |
| 1777865808 | 15° C | 75% | 1016.2 hPa | 0 mm | - | 0 W/m² | - |
| 1777865505 | 15.56° C | 74% | 1016.3 hPa | 0 mm | - | 0 W/m² | - |
| 1777865201 | 15.56° C | 73% | 1016.2 hPa | 0 mm | - | 0 W/m² | - |
| 1777864898 | 15.56° C | 72% | 1016.3 hPa | 0 mm | - | 0 W/m² | - |
| 1777864596 | 15.56° C | 71% | 1016.3 hPa | 0 mm | - | 0 W/m² | - |
| 1777864292 | 16.11° C | 71% | 1016.3 hPa | 0 mm | - | 0 W/m² | - |
| 1777863989 | 16.11° C | 70% | 1016.1 hPa | 0 mm | - | 0 W/m² | - |
| 1777863685 | 16.11° C | 69% | 1016.3 hPa | 0 mm | - | 0 W/m² | - |
| 1777863382 | 16.11° C | 68% | 1016.2 hPa | 0 mm | - | 0 W/m² | - |
| 1777863079 | 16.67° C | 66% | 1016.3 hPa | 0 mm | - | 0 W/m² | - |
| 1777862777 | 16.67° C | 65% | 1016.2 hPa | 0 mm | - | 0 W/m² | - |
| 1777862473 | 16.67° C | 66% | 1016.4 hPa | 0 mm | - | 0 W/m² | - |
| 1777862169 | 17.22° C | 64% | 1016.4 hPa | 0 mm | - | 0 W/m² | - |
| 1777861865 | 17.22° C | 64% | 1016.1 hPa | 0 mm | - | 0 W/m² | - |
* Rain latest hour (hover to see other rain measurements)
** Current wind speed in m/s (hover to see current wind gust speed)